Time;durP1;ratioP1;P1;durP2;ratioP2;P2;SDS_P1;SDS_P2;PMS_P1;PMS_P2;Temp;Humidity;BMP_temperature;BMP_pressure;BME280_temperature;BME280_humidity;BME280_pressure;Samples;Min_cycle;Max_cycle;Signal;HPM_P1;HPM_P2
2022/08/01 00:02:17;;;;;;;;;;;16.70;99.90;;;;;;4983730;28;21295;-76
2022/08/01 00:04:43;;;;;;;;;;;16.70;99.90;;;;;;4980228;28;20403;-77
2022/08/01 00:07:08;;;;;;;;;;;16.60;99.90;;;;;;4982156;28;19968;-76
2022/08/01 00:09:34;;;;;;;;;;;16.60;99.90;;;;;;4983254;28;19940;-77
2022/08/01 00:11:59;;;;;;;;;;;16.60;99.90;;;;;;4981821;28;19940;-77
2022/08/01 00:14:25;;;;;;;;;;;16.60;99.90;;;;;;4981249;28;19913;-76
2022/08/01 00:16:50;;;;;;;;;;;16.60;99.90;;;;;;4984167;28;19913;-76
2022/08/01 00:19:16;;;;;;;;;;;16.50;99.90;;;;;;4984349;28;19981;-76
2022/08/01 00:21:42;;;;;;;;;;;16.50;99.90;;;;;;4970973;28;20111;-76
2022/08/01 00:24:07;;;;;;;;;;;16.50;99.90;;;;;;4981484;28;19917;-77
2022/08/01 00:26:33;;;;;;;;;;;16.50;99.90;;;;;;4979504;28;19921;-77
2022/08/01 00:28:58;;;;;;;;;;;16.50;99.90;;;;;;4980726;28;19979;-77
2022/08/01 00:31:24;;;;;;;;;;;16.50;99.90;;;;;;4980840;28;20093;-76
2022/08/01 00:33:49;;;;;;;;;;;16.60;99.90;;;;;;4983242;28;20035;-76
2022/08/01 00:36:15;;;;;;;;;;;16.70;99.90;;;;;;4982165;28;19913;-76
2022/08/01 00:38:40;;;;;;;;;;;16.80;99.90;;;;;;4981809;28;19948;-77
2022/08/01 00:41:06;;;;;;;;;;;16.90;99.90;;;;;;4982623;28;19913;-76
2022/08/01 00:43:31;;;;;;;;;;;17.00;99.90;;;;;;4981504;28;19917;-76
2022/08/01 00:45:57;;;;;;;;;;;17.00;99.90;;;;;;4962209;28;20410;-76
2022/08/01 00:48:22;;;;;;;;;;;17.00;99.90;;;;;;4981830;28;19952;-76
2022/08/01 00:50:48;;;;;;;;;;;17.10;99.90;;;;;;4981543;28;21633;-77
2022/08/01 00:53:14;;;;;;;;;;;17.20;99.90;;;;;;4976860;28;20063;-76
2022/08/01 00:55:39;;;;;;;;;;;17.10;99.90;;;;;;4978936;28;19917;-77
2022/08/01 00:58:05;;;;;;;;;;;17.10;99.90;;;;;;4956022;28;19965;-76
2022/08/01 01:00:31;;;;;;;;;;;17.10;99.90;;;;;;4985161;28;19924;-76
2022/08/01 01:02:57;;;;;;;;;;;17.20;99.90;;;;;;4985389;28;19953;-76
2022/08/01 01:05:23;;;;;;;;;;;17.20;99.90;;;;;;4980327;28;20012;-76
2022/08/01 01:08:13;;;;;;;;;;;17.20;99.90;;;;;;4981323;28;19928;-76
2022/08/01 01:10:38;;;;;;;;;;;17.20;99.90;;;;;;4969590;28;19961;-77
2022/08/01 01:13:06;;;;;;;;;;;17.20;99.90;;;;;;4962363;28;20016;-76
2022/08/01 01:15:33;;;;;;;;;;;17.20;99.90;;;;;;4982250;28;19952;-76
2022/08/01 01:18:02;;;;;;;;;;;17.20;99.90;;;;;;4979948;28;19921;-76
2022/08/01 01:20:30;;;;;;;;;;;17.20;99.90;;;;;;4965221;28;19913;-76
2022/08/01 01:22:56;;;;;;;;;;;17.20;99.90;;;;;;4981321;28;19925;-77
2022/08/01 01:25:36;;;;;;;;;;;17.20;99.90;;;;;;4993554;28;20288;-77
2022/08/01 01:28:02;;;;;;;;;;;17.20;99.90;;;;;;4991078;28;19980;-77
2022/08/01 01:30:29;;;;;;;;;;;17.20;99.90;;;;;;4991744;28;19917;-76
2022/08/01 01:32:57;;;;;;;;;;;17.10;99.90;;;;;;4963695;28;19913;-76
2022/08/01 01:35:25;;;;;;;;;;;17.10;99.90;;;;;;4980573;28;20294;-76
2022/08/01 01:37:55;;;;;;;;;;;17.20;99.90;;;;;;4978649;28;19924;-76
2022/08/01 01:40:21;;;;;;;;;;;17.10;99.90;;;;;;4982340;28;19920;-77
2022/08/01 01:42:47;;;;;;;;;;;17.10;99.90;;;;;;4953207;28;20427;-76
2022/08/01 01:45:13;;;;;;;;;;;17.10;99.90;;;;;;4961303;28;19917;-76
2022/08/01 01:47:39;;;;;;;;;;;17.10;99.90;;;;;;4980931;28;19991;-76
2022/08/01 01:50:06;;;;;;;;;;;17.00;99.90;;;;;;4975350;28;20373;-77
2022/08/01 01:52:32;;;;;;;;;;;17.00;99.90;;;;;;4980707;28;20061;-77
2022/08/01 01:55:00;;;;;;;;;;;17.00;99.90;;;;;;4993994;28;19929;-76
2022/08/01 01:57:26;;;;;;;;;;;16.90;99.90;;;;;;4971591;28;19917;-76
2022/08/01 01:59:53;;;;;;;;;;;16.90;99.90;;;;;;4987909;28;19917;-76
2022/08/01 02:02:18;;;;;;;;;;;17.00;99.90;;;;;;4984173;28;19975;-76
2022/08/01 02:04:46;;;;;;;;;;;17.00;99.90;;;;;;4960488;28;20016;-76
2022/08/01 02:07:14;;;;;;;;;;;16.90;99.90;;;;;;4963976;28;19931;-76
2022/08/01 02:09:40;;;;;;;;;;;16.90;99.90;;;;;;4991941;28;19940;-76
2022/08/01 02:12:06;;;;;;;;;;;16.90;99.90;;;;;;4992274;28;19936;-77
2022/08/01 02:14:34;;;;;;;;;;;16.80;99.90;;;;;;4967634;28;19925;-76
2022/08/01 02:17:03;;;;;;;;;;;16.80;99.90;;;;;;4963388;28;20043;-76
2022/08/01 02:19:29;;;;;;;;;;;16.90;99.90;;;;;;4977755;28;19913;-77
2022/08/01 02:21:57;;;;;;;;;;;16.80;99.90;;;;;;4983360;28;20357;-76
2022/08/01 02:24:23;;;;;;;;;;;16.80;99.90;;;;;;4960714;28;20388;-76
2022/08/01 02:26:50;;;;;;;;;;;16.80;99.90;;;;;;4961922;28;19925;-76
2022/08/01 02:29:32;;;;;;;;;;;16.80;99.90;;;;;;4961512;28;19924;-76
2022/08/01 02:31:59;;;;;;;;;;;16.80;99.90;;;;;;4974149;28;20297;-76
2022/08/01 02:34:27;;;;;;;;;;;16.70;99.90;;;;;;4962269;28;20350;-76
2022/08/01 02:36:54;;;;;;;;;;;16.70;99.90;;;;;;4980472;28;19917;-76
2022/08/01 02:39:21;;;;;;;;;;;16.60;99.90;;;;;;4980885;28;20812;-76
2022/08/01 02:41:48;;;;;;;;;;;16.60;99.90;;;;;;4962605;28;19917;-76
2022/08/01 02:44:23;;;;;;;;;;;16.60;99.90;;;;;;4982167;28;19918;-76
2022/08/01 02:46:51;;;;;;;;;;;16.60;99.90;;;;;;4991347;28;19921;-76
2022/08/01 02:49:19;;;;;;;;;;;16.60;99.90;;;;;;4998032;28;19910;-76
2022/08/01 02:51:46;;;;;;;;;;;16.70;99.90;;;;;;4993315;28;20377;-77
2022/08/01 02:54:12;;;;;;;;;;;16.70;99.90;;;;;;4983594;28;20590;-76
2022/08/01 02:56:38;;;;;;;;;;;16.60;99.90;;;;;;4980883;28;19937;-76
2022/08/01 02:59:14;;;;;;;;;;;16.60;99.90;;;;;;4979567;28;19921;-76
2022/08/01 03:01:41;;;;;;;;;;;16.60;99.90;;;;;;4966554;28;19923;-76
2022/08/01 03:04:07;;;;;;;;;;;16.70;99.90;;;;;;4980329;28;19925;-76
2022/08/01 03:06:33;;;;;;;;;;;16.70;99.90;;;;;;4981862;28;19983;-77
2022/08/01 03:09:01;;;;;;;;;;;16.80;99.90;;;;;;4967427;28;19919;-76
2022/08/01 03:11:28;;;;;;;;;;;16.90;99.90;;;;;;4985354;28;20363;-76
2022/08/01 03:13:54;;;;;;;;;;;17.00;99.90;;;;;;4985156;28;19913;-76
2022/08/01 03:16:22;;;;;;;;;;;17.00;99.90;;;;;;4965711;28;19913;-76
2022/08/01 03:18:48;;;;;;;;;;;17.00;99.90;;;;;;4981055;28;19913;-77
2022/08/01 03:21:14;;;;;;;;;;;17.10;99.90;;;;;;4968284;28;20417;-76
2022/08/01 03:23:41;;;;;;;;;;;17.20;99.90;;;;;;4981988;28;20008;-77
2022/08/01 03:26:06;;;;;;;;;;;17.20;99.90;;;;;;4966528;28;20521;-76
2022/08/01 03:28:32;;;;;;;;;;;17.20;99.90;;;;;;4984329;28;20609;-76
2022/08/01 03:30:58;;;;;;;;;;;17.30;99.90;;;;;;4979371;28;19967;-76
2022/08/01 03:33:23;;;;;;;;;;;17.20;99.90;;;;;;4964475;28;19913;-77
2022/08/01 03:35:53;;;;;;;;;;;17.20;99.90;;;;;;4983027;28;21864;-77
2022/08/01 03:38:20;;;;;;;;;;;17.20;99.90;;;;;;4995970;28;19984;-76
2022/08/01 03:40:53;;;;;;;;;;;17.20;99.90;;;;;;4995424;28;20023;-77
2022/08/01 03:43:41;;;;;;;;;;;17.20;99.90;;;;;;4971460;28;20153;-76
2022/08/01 03:46:09;;;;;;;;;;;17.20;99.90;;;;;;4971854;28;19923;-77
2022/08/01 03:48:39;;;;;;;;;;;17.10;99.90;;;;;;4967944;28;19913;-77
2022/08/01 03:51:05;;;;;;;;;;;17.00;99.90;;;;;;4971809;28;19924;-76
2022/08/01 03:53:32;;;;;;;;;;;17.00;99.90;;;;;;4988926;28;20045;-77
2022/08/01 03:55:59;;;;;;;;;;;17.00;99.90;;;;;;4983724;28;19917;-76
2022/08/01 03:58:25;;;;;;;;;;;17.00;99.90;;;;;;4962289;28;19917;-76
2022/08/01 04:00:51;;;;;;;;;;;17.00;99.90;;;;;;4968058;28;19913;-77
2022/08/01 04:03:16;;;;;;;;;;;17.00;99.90;;;;;;4966233;28;19920;-76
2022/08/01 04:05:42;;;;;;;;;;;17.10;99.90;;;;;;4965024;28;20023;-76
2022/08/01 04:08:08;;;;;;;;;;;17.10;99.90;;;;;;4981485;28;19917;-77
2022/08/01 04:10:33;;;;;;;;;;;17.20;99.90;;;;;;4964189;28;19928;-77
2022/08/01 04:12:59;;;;;;;;;;;17.30;99.90;;;;;;4963541;28;20007;-76
2022/08/01 04:15:25;;;;;;;;;;;17.30;99.90;;;;;;4982721;28;19923;-77
2022/08/01 04:17:50;;;;;;;;;;;17.30;99.90;;;;;;4983830;28;19917;-77
2022/08/01 04:20:16;;;;;;;;;;;17.40;99.90;;;;;;4965682;28;19914;-76
2022/08/01 04:22:42;;;;;;;;;;;17.40;99.90;;;;;;4970346;28;19921;-77
2022/08/01 04:25:24;;;;;;;;;;;17.40;99.90;;;;;;4966678;28;19917;-77
2022/08/01 04:27:51;;;;;;;;;;;17.50;99.90;;;;;;4963364;28;20391;-77
2022/08/01 04:30:22;;;;;;;;;;;17.50;99.90;;;;;;4991283;28;19924;-77
2022/08/01 04:32:49;;;;;;;;;;;17.50;99.90;;;;;;4961297;28;19936;-77
2022/08/01 04:35:16;;;;;;;;;;;17.50;99.90;;;;;;4983576;28;19914;-76
2022/08/01 04:37:44;;;;;;;;;;;17.50;99.90;;;;;;4963899;28;19913;-77
2022/08/01 04:40:10;;;;;;;;;;;17.60;99.90;;;;;;4981181;28;19920;-77
2022/08/01 04:42:36;;;;;;;;;;;17.60;99.90;;;;;;4984396;28;19956;-77
2022/08/01 04:45:02;;;;;;;;;;;17.60;99.90;;;;;;4983090;28;20616;-76
2022/08/01 04:47:28;;;;;;;;;;;17.60;99.90;;;;;;4983108;28;20351;-77
2022/08/01 04:49:53;;;;;;;;;;;17.60;99.90;;;;;;4981692;28;20285;-77
2022/08/01 04:52:19;;;;;;;;;;;17.70;99.90;;;;;;4973102;28;19913;-77
2022/08/01 04:54:46;;;;;;;;;;;17.70;99.90;;;;;;4980957;28;20391;-77
2022/08/01 04:57:12;;;;;;;;;;;17.70;99.90;;;;;;4965317;28;20360;-77
2022/08/01 04:59:41;;;;;;;;;;;17.70;99.90;;;;;;4962830;28;19917;-77
2022/08/01 05:02:11;;;;;;;;;;;17.80;99.90;;;;;;4987346;28;20292;-77
2022/08/01 05:04:37;;;;;;;;;;;17.90;99.90;;;;;;4982567;28;19968;-77
2022/08/01 05:07:04;;;;;;;;;;;17.90;99.90;;;;;;4981465;28;20009;-77
2022/08/01 05:09:30;;;;;;;;;;;17.90;99.90;;;;;;4977027;28;19959;-76
2022/08/01 05:11:58;;;;;;;;;;;18.00;99.90;;;;;;4963805;28;19918;-76
2022/08/01 05:14:26;;;;;;;;;;;18.00;99.90;;;;;;4981283;28;19921;-77
2022/08/01 05:16:52;;;;;;;;;;;18.10;99.90;;;;;;4963479;28;19913;-77
2022/08/01 05:19:18;;;;;;;;;;;18.10;99.90;;;;;;4982121;28;19914;-77
2022/08/01 05:21:43;;;;;;;;;;;18.20;99.90;;;;;;4981761;28;19940;-78
2022/08/01 05:24:08;;;;;;;;;;;18.30;99.90;;;;;;4981621;28;19921;-77
2022/08/01 05:26:34;;;;;;;;;;;18.30;99.90;;;;;;4961912;28;20011;-76
2022/08/01 05:29:00;;;;;;;;;;;18.30;99.90;;;;;;4983731;28;19921;-77
2022/08/01 05:31:25;;;;;;;;;;;18.40;99.90;;;;;;4980715;28;20019;-77
2022/08/01 05:33:51;;;;;;;;;;;18.50;99.90;;;;;;4963602;28;20361;-77
2022/08/01 05:36:16;;;;;;;;;;;18.50;99.90;;;;;;4980966;28;19936;-77
2022/08/01 05:38:42;;;;;;;;;;;18.50;99.90;;;;;;4981214;28;20387;-76
2022/08/01 05:41:07;;;;;;;;;;;18.50;99.90;;;;;;4980562;28;20283;-76
2022/08/01 05:43:33;;;;;;;;;;;18.50;99.90;;;;;;4999918;28;19913;-76
2022/08/01 05:45:58;;;;;;;;;;;18.50;99.90;;;;;;4973492;28;20039;-77
2022/08/01 05:48:24;;;;;;;;;;;18.60;99.90;;;;;;4982589;28;20002;-76
2022/08/01 05:50:50;;;;;;;;;;;18.70;99.90;;;;;;4988849;28;20292;-76
2022/08/01 05:53:15;;;;;;;;;;;18.80;99.90;;;;;;4966408;28;20007;-76
2022/08/01 05:55:41;;;;;;;;;;;18.90;99.90;;;;;;4960873;28;19913;-76
2022/08/01 05:58:06;;;;;;;;;;;19.00;99.90;;;;;;4963167;28;20160;-77
2022/08/01 06:00:32;;;;;;;;;;;19.10;99.90;;;;;;4978362;28;20004;-77
2022/08/01 06:02:58;;;;;;;;;;;19.30;99.90;;;;;;4979437;28;19913;-76
2022/08/01 06:05:23;;;;;;;;;;;19.40;99.90;;;;;;4979035;28;19933;-77
2022/08/01 06:07:49;;;;;;;;;;;19.50;99.90;;;;;;4979207;28;21532;-76
2022/08/01 06:10:14;;;;;;;;;;;19.60;99.90;;;;;;4961363;28;19958;-76
2022/08/01 06:12:40;;;;;;;;;;;19.60;99.90;;;;;;4993582;28;19917;-78
2022/08/01 06:15:06;;;;;;;;;;;19.70;99.90;;;;;;4986439;28;19967;-76
2022/08/01 06:17:32;;;;;;;;;;;19.70;99.90;;;;;;4981518;28;21685;-77
2022/08/01 06:19:57;;;;;;;;;;;19.90;99.90;;;;;;4976570;28;19913;-77
2022/08/01 06:22:23;;;;;;;;;;;20.00;99.90;;;;;;4983464;28;19925;-76
2022/08/01 06:24:48;;;;;;;;;;;20.00;99.90;;;;;;4982007;28;19916;-76
2022/08/01 06:27:14;;;;;;;;;;;20.00;99.90;;;;;;4954840;28;19967;-77
2022/08/01 06:29:40;;;;;;;;;;;20.00;99.90;;;;;;4948934;28;20396;-76
2022/08/01 06:32:06;;;;;;;;;;;20.00;99.90;;;;;;4973674;28;19919;-77
2022/08/01 06:34:32;;;;;;;;;;;20.10;99.90;;;;;;4968774;28;20380;-77
2022/08/01 06:36:57;;;;;;;;;;;20.10;99.90;;;;;;4981556;28;19913;-77
2022/08/01 06:39:23;;;;;;;;;;;20.20;99.90;;;;;;4984904;28;19966;-77
2022/08/01 06:41:48;;;;;;;;;;;20.20;99.90;;;;;;4972723;28;20251;-78
2022/08/01 06:44:15;;;;;;;;;;;20.30;99.90;;;;;;4981919;28;19917;-77
2022/08/01 06:46:40;;;;;;;;;;;20.40;99.90;;;;;;4965774;28;20008;-77
2022/08/01 06:49:06;;;;;;;;;;;20.50;99.90;;;;;;4985939;28;19914;-78
2022/08/01 06:51:31;;;;;;;;;;;20.60;99.90;;;;;;4983116;28;19920;-77
2022/08/01 06:53:57;;;;;;;;;;;20.60;99.90;;;;;;4988018;28;20478;-78
2022/08/01 06:56:22;;;;;;;;;;;20.70;99.90;;;;;;4969160;28;20063;-78
2022/08/01 06:58:49;;;;;;;;;;;20.60;99.90;;;;;;4984403;28;19929;-78
2022/08/01 07:01:14;;;;;;;;;;;20.50;99.90;;;;;;4958826;28;20011;-78
2022/08/01 07:03:40;;;;;;;;;;;20.50;99.90;;;;;;4973074;28;20602;-78
2022/08/01 07:06:05;;;;;;;;;;;20.50;99.90;;;;;;4948013;28;19913;-78
2022/08/01 07:08:31;;;;;;;;;;;20.50;99.90;;;;;;4971874;28;19968;-77
2022/08/01 07:10:59;;;;;;;;;;;20.60;99.90;;;;;;4955336;28;20008;-77
2022/08/01 07:13:27;;;;;;;;;;;20.80;99.90;;;;;;4970469;28;19917;-77
2022/08/01 07:15:53;;;;;;;;;;;20.80;99.90;;;;;;4958585;28;19917;-76
2022/08/01 07:18:19;;;;;;;;;;;20.90;99.90;;;;;;4952035;28;20524;-76
2022/08/01 07:20:45;;;;;;;;;;;20.70;99.90;;;;;;4977727;28;20118;-76
2022/08/01 07:23:12;;;;;;;;;;;20.70;99.90;;;;;;4952938;28;19925;-77
2022/08/01 07:25:38;;;;;;;;;;;20.60;99.90;;;;;;4972879;28;19917;-76
2022/08/01 07:28:05;;;;;;;;;;;20.40;99.90;;;;;;4951884;28;20476;-77
2022/08/01 07:30:45;;;;;;;;;;;20.30;99.90;;;;;;4949961;28;19917;-75
2022/08/01 07:33:12;;;;;;;;;;;20.00;99.90;;;;;;4967579;28;19921;-76
2022/08/01 07:35:39;;;;;;;;;;;19.80;99.90;;;;;;4956609;28;20057;-75
2022/08/01 07:38:05;;;;;;;;;;;19.50;99.90;;;;;;4972548;28;19925;-75
2022/08/01 07:40:30;;;;;;;;;;;19.30;99.90;;;;;;4969632;28;20143;-75
2022/08/01 07:42:56;;;;;;;;;;;19.20;99.90;;;;;;4949749;28;19925;-76
2022/08/01 07:45:27;;;;;;;;;;;19.10;99.90;;;;;;4954102;28;19917;-77
2022/08/01 07:50:47;;;;;;;;;;;18.90;99.90;;;;;;4971153;28;20247;-76
2022/08/01 07:53:12;;;;;;;;;;;18.70;99.90;;;;;;4970471;28;20472;-76
2022/08/01 07:55:38;;;;;;;;;;;18.60;99.90;;;;;;4966093;28;20908;-77
2022/08/01 07:58:03;;;;;;;;;;;18.60;99.90;;;;;;4973117;28;20472;-77
2022/08/01 08:00:29;;;;;;;;;;;18.60;99.90;;;;;;4981193;28;19944;-77
2022/08/01 08:02:55;;;;;;;;;;;18.70;99.90;;;;;;4981954;28;19909;-77
2022/08/01 08:05:20;;;;;;;;;;;18.60;99.90;;;;;;4979270;28;20007;-77
2022/08/01 08:07:46;;;;;;;;;;;18.60;99.90;;;;;;4978482;28;19929;-77
2022/08/01 08:10:11;;;;;;;;;;;18.70;99.90;;;;;;4982261;28;19921;-77
2022/08/01 08:12:37;;;;;;;;;;;18.90;99.90;;;;;;4964089;28;19913;-77
2022/08/01 08:15:05;;;;;;;;;;;19.10;99.90;;;;;;4980825;28;20272;-76
2022/08/01 08:17:31;;;;;;;;;;;19.40;99.90;;;;;;4979839;28;19913;-77
2022/08/01 08:19:58;;;;;;;;;;;19.70;99.90;;;;;;4979169;28;19913;-77
2022/08/01 08:22:24;;;;;;;;;;;20.10;99.90;;;;;;4960739;28;19917;-77
2022/08/01 08:24:50;;;;;;;;;;;20.40;99.90;;;;;;4964138;28;19980;-77
2022/08/01 08:27:16;;;;;;;;;;;20.50;99.90;;;;;;4962243;28;19925;-77
2022/08/01 08:29:43;;;;;;;;;;;20.60;99.90;;;;;;4966876;28;20010;-77
2022/08/01 08:32:09;;;;;;;;;;;20.50;99.90;;;;;;4972529;28;20347;-77
2022/08/01 08:34:35;;;;;;;;;;;20.50;99.90;;;;;;4964282;28;19914;-78
2022/08/01 08:37:01;;;;;;;;;;;20.30;99.90;;;;;;4941239;28;19917;-77
2022/08/01 08:39:29;;;;;;;;;;;20.30;99.90;;;;;;4963059;28;21255;-76
2022/08/01 08:41:59;;;;;;;;;;;20.30;99.90;;;;;;4981743;28;19991;-76
2022/08/01 08:44:29;;;;;;;;;;;20.50;99.90;;;;;;4979013;28;20213;-77
2022/08/01 08:46:59;;;;;;;;;;;20.60;99.90;;;;;;4957160;28;19930;-76
2022/08/01 08:49:26;;;;;;;;;;;20.70;99.90;;;;;;4957075;28;19914;-76
2022/08/01 08:51:53;;;;;;;;;;;20.70;99.90;;;;;;4990322;28;19920;-76
2022/08/01 08:57:38;;;;;;;;;;;20.70;99.90;;;;;;5000177;28;20007;-76
2022/08/01 09:00:03;;;;;;;;;;;20.80;99.90;;;;;;4991938;28;20141;-76
2022/08/01 09:02:34;;;;;;;;;;;20.90;99.90;;;;;;4975013;28;19913;-76
2022/08/01 09:05:04;;;;;;;;;;;20.90;99.90;;;;;;4989228;28;20088;-76
2022/08/01 09:07:54;;;;;;;;;;;20.90;99.90;;;;;;4971745;28;20059;-76
2022/08/01 09:10:45;;;;;;;;;;;20.90;99.90;;;;;;4996566;28;19913;-76
2022/08/01 09:13:13;;;;;;;;;;;20.70;99.90;;;;;;4976912;28;19984;-75
2022/08/01 09:15:59;;;;;;;;;;;20.60;99.90;;;;;;4977023;28;19913;-76
2022/08/01 09:18:35;;;;;;;;;;;20.70;99.90;;;;;;4982013;28;19936;-76
2022/08/01 09:21:07;;;;;;;;;;;20.90;99.90;;;;;;4998204;28;19924;-76
2022/08/01 09:23:39;;;;;;;;;;;21.10;99.90;;;;;;4983137;28;19956;-76
2022/08/01 09:26:05;;;;;;;;;;;21.60;99.90;;;;;;4978392;28;19916;-75
2022/08/01 09:28:31;;;;;;;;;;;22.10;99.90;;;;;;4970796;28;19928;-76
2022/08/01 09:30:57;;;;;;;;;;;22.80;99.90;;;;;;4966441;28;20287;-75
2022/08/01 09:33:22;;;;;;;;;;;23.50;99.90;;;;;;4979186;28;20360;-76
2022/08/01 09:35:55;;;;;;;;;;;24.10;99.90;;;;;;4962430;28;20104;-76
2022/08/01 09:38:21;;;;;;;;;;;25.10;99.90;;;;;;4956905;28;20519;-76
2022/08/01 09:40:57;;;;;;;;;;;25.40;99.90;;;;;;4953227;28;20402;-76
2022/08/01 09:43:24;;;;;;;;;;;25.50;99.90;;;;;;4954506;28;19917;-76
2022/08/01 09:45:49;;;;;;;;;;;24.90;99.90;;;;;;4965999;28;19913;-75
2022/08/01 09:48:15;;;;;;;;;;;24.40;99.90;;;;;;4959866;28;19944;-76
2022/08/01 09:50:48;;;;;;;;;;;24.00;99.90;;;;;;4964055;28;19918;-76
2022/08/01 09:53:14;;;;;;;;;;;23.70;99.90;;;;;;4963540;28;20333;-75
2022/08/01 09:55:41;;;;;;;;;;;23.40;99.90;;;;;;4965963;28;19961;-75
2022/08/01 09:58:07;;;;;;;;;;;23.20;99.90;;;;;;4967706;28;19974;-75
2022/08/01 10:00:33;;;;;;;;;;;22.90;99.90;;;;;;4962336;28;19931;-75
2022/08/01 10:02:59;;;;;;;;;;;22.90;99.90;;;;;;4946232;28;19963;-76
2022/08/01 10:05:34;;;;;;;;;;;22.90;99.90;;;;;;4968207;28;19921;-76
2022/08/01 10:08:02;;;;;;;;;;;23.00;99.90;;;;;;4971167;28;19980;-75
2022/08/01 10:10:28;;;;;;;;;;;23.00;99.90;;;;;;4944655;28;20396;-75
2022/08/01 10:12:55;;;;;;;;;;;22.90;99.90;;;;;;4971251;28;19917;-76
2022/08/01 10:15:21;;;;;;;;;;;22.80;99.90;;;;;;4971737;28;20727;-76
2022/08/01 10:17:51;;;;;;;;;;;22.70;99.90;;;;;;4972147;28;19917;-76
2022/08/01 10:20:19;;;;;;;;;;;22.70;99.90;;;;;;4975532;28;20024;-75
2022/08/01 10:22:45;;;;;;;;;;;22.70;99.90;;;;;;4972607;28;19921;-75
2022/08/01 10:25:12;;;;;;;;;;;22.80;99.90;;;;;;4976357;28;20285;-75
2022/08/01 10:27:38;;;;;;;;;;;23.00;99.90;;;;;;4960815;28;20295;-75
2022/08/01 10:30:05;;;;;;;;;;;23.10;99.90;;;;;;4989599;28;19924;-75
2022/08/01 10:32:31;;;;;;;;;;;23.20;99.90;;;;;;4981534;28;20648;-75
2022/08/01 10:34:58;;;;;;;;;;;23.40;99.90;;;;;;4977168;28;20620;-75
2022/08/01 10:37:24;;;;;;;;;;;23.60;99.90;;;;;;4974131;28;19964;-74
2022/08/01 10:39:51;;;;;;;;;;;23.80;99.90;;;;;;4973267;28;19920;-75
2022/08/01 10:42:17;;;;;;;;;;;24.10;99.90;;;;;;4978458;28;19920;-75
2022/08/01 10:44:46;;;;;;;;;;;24.30;99.90;;;;;;4982105;28;20477;-76
2022/08/01 10:47:12;;;;;;;;;;;24.10;99.90;;;;;;4978834;28;20039;-75
2022/08/01 10:50:02;;;;;;;;;;;24.00;99.90;;;;;;4956952;28;20383;-75
2022/08/01 10:52:27;;;;;;;;;;;24.10;99.90;;;;;;4983351;28;19913;-76
2022/08/01 10:55:03;;;;;;;;;;;24.10;99.90;;;;;;4981629;28;20373;-74
2022/08/01 10:57:45;;;;;;;;;;;24.20;99.90;;;;;;4974351;28;21036;-74
2022/08/01 11:00:29;;;;;;;;;;;24.60;99.90;;;;;;4964337;28;19917;-75
2022/08/01 11:03:00;;;;;;;;;;;24.90;99.90;;;;;;4959050;28;20001;-75
2022/08/01 11:05:26;;;;;;;;;;;25.00;99.90;;;;;;4986712;28;19955;-75
2022/08/01 11:07:53;;;;;;;;;;;25.10;99.90;;;;;;4984533;28;19943;-75
2022/08/01 11:10:30;;;;;;;;;;;25.00;99.90;;;;;;4981923;28;19918;-75
2022/08/01 11:12:55;;;;;;;;;;;25.00;99.90;;;;;;4983813;28;19920;-75
2022/08/01 11:15:25;;;;;;;;;;;25.10;99.90;;;;;;4982155;28;19913;-77
2022/08/01 11:17:51;;;;;;;;;;;25.20;99.90;;;;;;4962934;28;19920;-75
2022/08/01 11:20:16;;;;;;;;;;;25.30;99.90;;;;;;4983680;28;19913;-75
2022/08/01 11:23:14;;;;;;;;;;;25.20;99.90;;;;;;4985249;28;19914;-75
2022/08/01 11:25:41;;;;;;;;;;;25.20;99.90;;;;;;4984447;28;21540;-75
2022/08/01 11:28:13;;;;;;;;;;;25.00;99.90;;;;;;4986396;28;19922;-75
2022/08/01 11:30:42;;;;;;;;;;;25.20;99.90;;;;;;4979490;28;20004;-73
2022/08/01 11:33:08;;;;;;;;;;;25.90;99.90;;;;;;4981521;28;19913;-75
2022/08/01 11:35:34;;;;;;;;;;;26.50;99.90;;;;;;4974395;28;19963;-74
2022/08/01 11:38:19;;;;;;;;;;;26.80;99.90;;;;;;4983351;28;20044;-75
2022/08/01 11:40:44;;;;;;;;;;;27.10;99.90;;;;;;4981733;28;20267;-75
2022/08/01 11:43:13;;;;;;;;;;;27.50;99.90;;;;;;4961757;28;20088;-74
2022/08/01 11:45:52;;;;;;;;;;;27.80;99.90;;;;;;4972834;28;19913;-74
2022/08/01 11:48:19;;;;;;;;;;;27.90;99.90;;;;;;4969662;28;20429;-75
2022/08/01 11:50:44;;;;;;;;;;;28.20;99.90;;;;;;4970502;28;20367;-75
2022/08/01 11:53:10;;;;;;;;;;;28.00;99.90;;;;;;4970036;28;19917;-75
2022/08/01 11:55:35;;;;;;;;;;;27.90;99.90;;;;;;4967393;28;19918;-74
2022/08/01 11:58:03;;;;;;;;;;;28.00;99.90;;;;;;4972388;28;19918;-75
2022/08/01 12:00:30;;;;;;;;;;;27.90;99.90;;;;;;4953824;28;20384;-75
2022/08/01 12:02:57;;;;;;;;;;;28.10;99.90;;;;;;4960190;28;20012;-76
2022/08/01 12:05:23;;;;;;;;;;;28.60;99.90;;;;;;4984199;28;19980;-76
2022/08/01 12:07:52;;;;;;;;;;;29.00;99.90;;;;;;4975038;28;19930;-75
2022/08/01 12:10:19;;;;;;;;;;;29.20;99.90;;;;;;4972658;28;19921;-74
2022/08/01 12:12:45;;;;;;;;;;;29.00;99.50;;;;;;4959807;28;19913;-75
2022/08/01 12:15:11;;;;;;;;;;;28.30;99.90;;;;;;4970402;28;19914;-75
2022/08/01 12:17:48;;;;;;;;;;;28.10;99.90;;;;;;4970332;28;19924;-75
2022/08/01 12:20:14;;;;;;;;;;;27.60;99.90;;;;;;4970180;28;20303;-76
2022/08/01 12:22:41;;;;;;;;;;;27.40;99.90;;;;;;4970951;28;20004;-76
2022/08/01 12:25:07;;;;;;;;;;;27.00;99.90;;;;;;4969473;28;19963;-77
2022/08/01 12:27:32;;;;;;;;;;;26.80;99.90;;;;;;4964496;28;19921;-75
2022/08/01 12:29:58;;;;;;;;;;;26.40;99.90;;;;;;4972844;28;19925;-77
2022/08/01 12:32:30;;;;;;;;;;;26.40;99.90;;;;;;4954183;28;19999;-76
2022/08/01 12:34:55;;;;;;;;;;;26.50;99.90;;;;;;4974176;28;19979;-76
2022/08/01 12:37:21;;;;;;;;;;;26.50;99.90;;;;;;4970463;28;19917;-76
2022/08/01 12:39:47;;;;;;;;;;;26.90;99.90;;;;;;4955910;28;20357;-76
2022/08/01 12:42:13;;;;;;;;;;;27.80;99.90;;;;;;4969710;28;20385;-77
2022/08/01 12:44:40;;;;;;;;;;;28.10;99.90;;;;;;4970502;28;19917;-75
2022/08/01 12:47:06;;;;;;;;;;;28.00;99.90;;;;;;4973474;28;20031;-75
2022/08/01 12:49:32;;;;;;;;;;;27.80;99.90;;;;;;4974884;28;20348;-76
2022/08/01 12:51:58;;;;;;;;;;;27.60;99.90;;;;;;4970576;28;20483;-76
2022/08/01 12:54:25;;;;;;;;;;;27.20;99.90;;;;;;4970665;28;20424;-76
2022/08/01 12:56:52;;;;;;;;;;;26.90;99.90;;;;;;4973685;28;19925;-80
2022/08/01 12:59:24;;;;;;;;;;;27.00;99.90;;;;;;4964586;28;19945;-79
2022/08/01 13:01:50;;;;;;;;;;;27.10;99.90;;;;;;4981491;28;19975;-81
2022/08/01 13:04:16;;;;;;;;;;;27.40;99.90;;;;;;4983804;28;21475;-82
2022/08/01 13:06:41;;;;;;;;;;;27.70;99.90;;;;;;4959916;28;19928;-81
2022/08/01 13:09:08;;;;;;;;;;;27.60;99.90;;;;;;4981996;28;19921;-82
2022/08/01 13:11:34;;;;;;;;;;;27.10;99.90;;;;;;4978964;28;20458;-80
2022/08/01 13:14:01;;;;;;;;;;;27.30;99.90;;;;;;4960463;28;19956;-80
2022/08/01 13:16:26;;;;;;;;;;;27.30;99.90;;;;;;4954725;28;19917;-81
2022/08/01 13:18:53;;;;;;;;;;;27.30;99.90;;;;;;4972845;28;20628;-82
2022/08/01 13:21:20;;;;;;;;;;;27.00;99.90;;;;;;4977154;28;20541;-83
2022/08/01 13:24:06;;;;;;;;;;;27.30;99.90;;;;;;4978728;28;19953;-80
2022/08/01 13:26:41;;;;;;;;;;;28.10;99.90;;;;;;4976438;28;19968;-80
2022/08/01 13:29:07;;;;;;;;;;;28.40;99.90;;;;;;4977283;28;20412;-81
2022/08/01 13:31:34;;;;;;;;;;;28.20;99.90;;;;;;4979239;28;19956;-81
2022/08/01 13:33:59;;;;;;;;;;;28.50;99.90;;;;;;4974708;28;19924;-81
2022/08/01 13:36:28;;;;;;;;;;;29.10;99.90;;;;;;4960456;28;19913;-80
2022/08/01 13:41:38;;;;;;;;;;;29.20;97.50;;;;;;4990401;28;19920;-81
2022/08/01 13:44:04;;;;;;;;;;;28.30;99.90;;;;;;4975046;28;19917;-81
2022/08/01 13:46:30;;;;;;;;;;;27.90;99.90;;;;;;4991098;28;19921;-81
2022/08/01 13:48:55;;;;;;;;;;;27.80;99.90;;;;;;4973202;28;19913;-81
2022/08/01 13:51:21;;;;;;;;;;;27.60;99.90;;;;;;4989213;28;19920;-82
2022/08/01 13:53:46;;;;;;;;;;;27.30;99.90;;;;;;4986584;28;19936;-81
2022/08/01 13:56:12;;;;;;;;;;;27.30;99.90;;;;;;4985267;28;19917;-81
2022/08/01 13:58:38;;;;;;;;;;;27.50;99.90;;;;;;4960751;28;20284;-80
2022/08/01 14:01:03;;;;;;;;;;;27.50;99.90;;;;;;4981314;28;20652;-80
2022/08/01 14:03:30;;;;;;;;;;;27.50;99.90;;;;;;4990596;28;19913;-79
2022/08/01 14:05:56;;;;;;;;;;;27.70;99.90;;;;;;4987824;28;19963;-81
2022/08/01 14:08:22;;;;;;;;;;;27.70;99.90;;;;;;4985408;28;20289;-82
2022/08/01 14:10:47;;;;;;;;;;;27.70;99.90;;;;;;4988663;28;19913;-81
2022/08/01 14:13:13;;;;;;;;;;;27.60;99.90;;;;;;4988971;28;19967;-80
2022/08/01 14:15:39;;;;;;;;;;;27.30;99.90;;;;;;4985813;28;19922;-80
2022/08/01 14:18:05;;;;;;;;;;;27.30;99.90;;;;;;4987927;28;19922;-82
2022/08/01 14:20:31;;;;;;;;;;;27.50;99.90;;;;;;4989842;28;19920;-80
2022/08/01 14:22:56;;;;;;;;;;;27.40;99.90;;;;;;4982511;28;19913;-81
2022/08/01 14:25:22;;;;;;;;;;;27.60;99.90;;;;;;4984665;28;19921;-78
2022/08/01 14:27:47;;;;;;;;;;;27.40;99.90;;;;;;4984927;28;19932;-81